createdAt,value
2023-02-11T00:01:03.275Z,15.38
2023-02-11T00:03:30.520Z,19.23
2023-02-11T00:05:57.793Z,16.02
2023-02-11T00:08:25.062Z,17.77
2023-02-11T00:10:52.397Z,14.88
2023-02-11T00:13:19.875Z,13.85
2023-02-11T00:15:47.147Z,14.95
2023-02-11T00:18:14.439Z,13.18
2023-02-11T00:20:41.672Z,15.73
2023-02-11T00:23:08.953Z,14.98
2023-02-11T00:25:37.460Z,13.95
2023-02-11T00:28:04.797Z,15.57
2023-02-11T00:30:32.043Z,14.35
2023-02-11T00:32:59.771Z,13.68
2023-02-11T00:35:26.994Z,14.35
2023-02-11T00:37:54.253Z,11.02
2023-02-11T00:40:21.472Z,13.48
2023-02-11T00:42:48.719Z,13.80
2023-02-11T00:45:15.955Z,14.57
2023-02-11T00:47:43.204Z,14.38
2023-02-11T00:50:10.477Z,11.85
2023-02-11T00:52:37.793Z,18.30
2023-02-11T00:55:04.981Z,12.18
2023-02-11T00:57:32.967Z,12.70
2023-02-11T01:00:00.185Z,13.43
2023-02-11T01:02:27.521Z,12.43
2023-02-11T01:04:54.837Z,17.42
2023-02-11T01:07:22.122Z,10.70
2023-02-11T01:09:49.272Z,15.68
2023-02-11T01:12:16.581Z,16.70
2023-02-11T01:14:43.774Z,16.52
2023-02-11T01:17:11.327Z,19.02
2023-02-11T01:19:38.533Z,14.13
2023-02-11T01:22:07.202Z,18.30
2023-02-11T01:24:34.463Z,17.90
2023-02-11T01:27:01.723Z,20.10
2023-02-11T01:29:28.982Z,22.00
2023-02-11T01:31:56.291Z,17.52
2023-02-11T01:34:26.332Z,18.23
2023-02-11T01:36:53.576Z,20.90
2023-02-11T01:39:21.387Z,28.55
2023-02-11T01:41:48.646Z,19.00
2023-02-11T01:44:15.872Z,21.15
2023-02-11T01:46:43.176Z,24.55
2023-02-11T01:49:11.404Z,19.65
2023-02-11T01:51:38.826Z,25.63
2023-02-11T01:54:24.714Z,22.20
2023-02-11T01:57:11.443Z,21.63
2023-02-11T01:59:38.940Z,20.88
2023-02-11T02:02:06.303Z,21.38
2023-02-11T02:04:33.614Z,19.85
2023-02-11T02:07:00.845Z,22.95
2023-02-11T02:09:28.437Z,23.10
2023-02-11T02:11:55.629Z,18.80
2023-02-11T02:14:22.941Z,18.98
2023-02-11T02:16:50.128Z,24.45
2023-02-11T02:19:17.380Z,23.38
2023-02-11T02:21:44.609Z,24.85
2023-02-11T02:24:14.175Z,22.70
2023-02-11T02:26:41.566Z,24.35
2023-02-11T02:29:08.813Z,21.08
2023-02-11T02:31:36.108Z,19.52
2023-02-11T02:34:03.331Z,19.05
2023-02-11T02:36:30.808Z,20.15
2023-02-11T02:38:58.070Z,24.30
2023-02-11T02:41:25.338Z,20.55
2023-02-11T02:43:52.521Z,17.13
2023-02-11T02:46:19.726Z,22.00
2023-02-11T02:48:46.896Z,21.02
2023-02-11T02:51:14.171Z,21.48
2023-02-11T02:53:41.348Z,22.58
2023-02-11T02:56:08.634Z,22.52
2023-02-11T02:58:35.878Z,19.25
2023-02-11T03:01:03.165Z,22.23
2023-02-11T03:03:30.473Z,23.40
2023-02-11T03:05:57.765Z,24.48
2023-02-11T03:08:25.011Z,26.73
2023-02-11T03:10:52.258Z,23.33
2023-02-11T03:13:19.497Z,24.17
2023-02-11T03:15:46.809Z,21.17
2023-02-11T03:18:14.007Z,22.23
2023-02-11T03:20:41.244Z,22.13
2023-02-11T03:23:08.468Z,19.60
2023-02-11T03:25:35.720Z,23.65
2023-02-11T03:28:02.943Z,25.00
2023-02-11T03:30:30.207Z,19.70
2023-02-11T03:32:57.415Z,21.42
2023-02-11T03:35:24.723Z,22.50
2023-02-11T03:37:51.919Z,23.88
2023-02-11T03:40:19.193Z,21.98
2023-02-11T03:42:46.457Z,19.95
2023-02-11T03:45:13.701Z,22.98
2023-02-11T03:47:40.879Z,24.17
2023-02-11T03:50:08.112Z,28.15
2023-02-11T03:52:35.447Z,23.23
2023-02-11T03:55:02.699Z,25.67
2023-02-11T03:57:29.947Z,25.17
2023-02-11T03:59:57.226Z,24.60
2023-02-11T04:02:24.429Z,18.10
2023-02-11T04:04:51.727Z,24.08
2023-02-11T04:07:18.908Z,26.55
2023-02-11T04:09:46.204Z,22.63
2023-02-11T04:12:13.430Z,23.40
2023-02-11T04:14:40.772Z,23.00
2023-02-11T04:17:08.010Z,27.40
2023-02-11T04:19:35.275Z,25.70
2023-02-11T04:22:02.522Z,21.08
2023-02-11T04:24:29.838Z,21.55
2023-02-11T04:26:57.094Z,28.75
2023-02-11T04:29:24.359Z,25.92
2023-02-11T04:31:51.641Z,24.77
2023-02-11T04:34:18.976Z,22.17
2023-02-11T04:36:46.127Z,24.52
2023-02-11T04:39:13.334Z,19.92
2023-02-11T04:41:40.510Z,20.80
2023-02-11T04:44:07.747Z,22.83
2023-02-11T04:46:34.939Z,20.23
2023-02-11T04:49:02.236Z,20.75
2023-02-11T04:51:29.413Z,19.42
2023-02-11T04:53:56.683Z,20.40
2023-02-11T04:56:23.933Z,25.95
2023-02-11T04:58:51.166Z,20.13
2023-02-11T05:01:18.428Z,23.63
2023-02-11T05:03:45.844Z,20.63
2023-02-11T05:06:13.065Z,17.45
2023-02-11T05:08:40.316Z,18.92
2023-02-11T05:11:07.662Z,23.95
2023-02-11T05:13:34.955Z,20.42
2023-02-11T05:16:02.182Z,16.77
2023-02-11T05:18:29.483Z,16.88
2023-02-11T05:20:56.738Z,19.58
2023-02-11T05:23:23.972Z,17.10
2023-02-11T05:25:51.506Z,17.05
2023-02-11T05:28:18.919Z,22.08
2023-02-11T05:30:46.218Z,17.13
2023-02-11T05:33:13.819Z,12.88
2023-02-11T05:35:42.020Z,15.10
2023-02-11T05:38:09.291Z,17.33
2023-02-11T05:40:36.499Z,17.83
2023-02-11T05:43:06.404Z,18.13
2023-02-11T05:45:37.275Z,18.45
2023-02-11T05:48:04.717Z,14.38
2023-02-11T05:50:32.999Z,20.73
2023-02-11T05:53:00.947Z,17.48
2023-02-11T05:55:28.304Z,16.90
2023-02-11T05:58:01.888Z,11.43
2023-02-11T06:00:29.172Z,10.20
2023-02-11T06:02:57.722Z,16.60
2023-02-11T06:05:25.147Z,15.05
2023-02-11T06:07:53.166Z,12.73
2023-02-11T06:10:20.432Z,12.00
2023-02-11T06:12:50.384Z,20.42
2023-02-11T06:15:19.882Z,16.88
2023-02-11T06:17:48.741Z,18.15
2023-02-11T06:20:18.962Z,14.55
2023-02-11T06:22:51.310Z,12.45
2023-02-11T06:25:18.597Z,11.85
2023-02-11T06:27:45.864Z,15.25
2023-02-11T06:30:19.003Z,22.25
2023-02-11T06:32:49.015Z,15.20
2023-02-11T06:35:17.536Z,16.23
2023-02-11T06:40:35.046Z,12.68
2023-02-11T06:43:06.202Z,15.00
2023-02-11T06:45:35.557Z,12.05
2023-02-11T06:48:02.872Z,21.23
2023-02-11T06:50:30.116Z,13.70
2023-02-11T06:53:02.843Z,15.63
2023-02-11T06:55:31.200Z,13.65
2023-02-11T06:58:03.919Z,12.88
2023-02-11T07:00:32.256Z,16.52
2023-02-11T07:02:59.531Z,15.43
2023-02-11T07:05:27.028Z,14.15
2023-02-11T07:07:54.209Z,9.75
2023-02-11T07:10:21.702Z,14.98
2023-02-11T07:12:48.928Z,17.67
2023-02-11T07:15:17.663Z,16.63
2023-02-11T07:17:44.860Z,15.18
2023-02-11T07:20:15.696Z,11.73
2023-02-11T07:22:43.044Z,18.63
2023-02-11T07:25:10.290Z,17.77
2023-02-11T07:27:37.672Z,12.45
2023-02-11T07:30:07.465Z,17.73
2023-02-11T07:32:35.019Z,18.30
2023-02-11T07:35:02.329Z,14.40
2023-02-11T07:37:30.531Z,11.55
2023-02-11T07:39:59.595Z,12.55
2023-02-11T07:42:28.844Z,12.82
2023-02-11T07:44:57.566Z,12.50
2023-02-11T07:47:33.060Z,10.27
2023-02-11T07:50:06.915Z,13.18
2023-02-11T07:52:35.649Z,13.63
2023-02-11T07:55:05.029Z,11.90
2023-02-11T07:57:33.139Z,14.65
2023-02-11T08:00:00.410Z,9.45
2023-02-11T08:02:27.766Z,15.25
2023-02-11T08:04:55.132Z,8.20
2023-02-11T08:07:25.712Z,7.85
2023-02-11T08:09:57.344Z,9.95
2023-02-11T08:12:24.644Z,13.05
2023-02-11T08:14:55.858Z,7.88
2023-02-11T08:17:23.120Z,9.43
2023-02-11T08:19:50.364Z,11.68
2023-02-11T08:22:17.623Z,6.28
2023-02-11T08:24:44.827Z,6.63
2023-02-11T08:27:15.179Z,9.73
2023-02-11T08:29:42.864Z,11.85
2023-02-11T08:32:10.160Z,7.05
2023-02-11T08:34:37.860Z,10.38
2023-02-11T08:37:06.527Z,5.95
2023-02-11T08:39:36.607Z,5.57
2023-02-11T08:42:04.030Z,8.15
2023-02-11T08:44:31.571Z,4.63
2023-02-11T08:46:58.934Z,10.30
2023-02-11T08:49:27.232Z,10.90
2023-02-11T08:51:56.208Z,9.60
2023-02-11T08:54:23.383Z,11.02
2023-02-11T08:56:50.680Z,4.93
2023-02-11T08:59:19.213Z,11.70
2023-02-11T09:01:47.777Z,6.90
2023-02-11T09:04:15.152Z,8.25
2023-02-11T09:06:42.390Z,5.53
2023-02-11T09:09:09.606Z,8.88
2023-02-11T09:11:37.002Z,10.43
2023-02-11T09:14:04.228Z,5.85
2023-02-11T09:16:31.785Z,6.15
2023-02-11T09:18:59.125Z,7.38
2023-02-11T09:21:26.465Z,19.08
2023-02-11T09:23:53.641Z,7.28
2023-02-11T09:26:20.970Z,5.05
2023-02-11T09:28:48.418Z,4.30
2023-02-11T09:31:15.819Z,4.22
2023-02-11T09:33:47.942Z,8.60
2023-02-11T09:36:15.293Z,10.95
2023-02-11T09:38:42.543Z,6.07
2023-02-11T09:41:10.043Z,7.63
2023-02-11T09:43:37.333Z,6.30
2023-02-11T09:46:04.654Z,11.82
2023-02-11T09:48:33.372Z,6.55
2023-02-11T09:51:00.614Z,6.22
2023-02-11T09:53:27.870Z,9.20
2023-02-11T09:55:59.705Z,10.48
2023-02-11T09:58:27.016Z,9.63
2023-02-11T10:00:54.214Z,6.25
2023-02-11T10:03:21.496Z,7.13
2023-02-11T10:05:48.855Z,8.07
2023-02-11T10:08:17.127Z,7.30
2023-02-11T10:10:44.373Z,6.32
2023-02-11T10:13:11.716Z,4.10
2023-02-11T10:15:38.954Z,10.02
2023-02-11T10:18:06.366Z,4.18
2023-02-11T10:20:33.556Z,7.68
2023-02-11T10:23:01.362Z,8.30
2023-02-11T10:25:28.621Z,3.90
2023-02-11T10:27:55.998Z,8.50
2023-02-11T10:30:23.316Z,4.65
2023-02-11T10:32:50.771Z,11.25
2023-02-11T10:35:18.400Z,4.30
2023-02-11T10:37:45.679Z,4.55
2023-02-11T10:40:12.938Z,5.20
2023-02-11T10:42:40.209Z,4.65
2023-02-11T10:45:07.508Z,7.72
2023-02-11T10:47:36.841Z,5.88
2023-02-11T10:50:04.010Z,7.57
2023-02-11T10:52:31.274Z,9.68
2023-02-11T10:54:58.596Z,2.50
2023-02-11T10:57:25.885Z,2.65
2023-02-11T10:59:53.685Z,10.27
2023-02-11T11:02:20.925Z,7.40
2023-02-11T11:04:48.107Z,5.88
2023-02-11T11:07:15.427Z,4.10
2023-02-11T11:09:42.706Z,4.43
2023-02-11T11:12:09.915Z,7.50
2023-02-11T11:14:37.230Z,6.78
2023-02-11T11:17:04.458Z,6.55
2023-02-11T11:19:31.767Z,4.90
2023-02-11T11:21:59.346Z,9.25
2023-02-11T11:24:27.932Z,7.05
2023-02-11T11:26:55.184Z,8.38
2023-02-11T11:29:22.374Z,5.30
2023-02-11T11:31:49.736Z,3.65
2023-02-11T11:34:16.996Z,3.88
2023-02-11T11:36:44.196Z,4.65
2023-02-11T11:39:11.453Z,11.00
2023-02-11T11:41:38.673Z,6.18
2023-02-11T11:44:05.944Z,5.00
2023-02-11T11:46:33.279Z,4.78
2023-02-11T11:49:00.547Z,2.45
2023-02-11T11:51:27.787Z,4.78
2023-02-11T11:53:55.441Z,7.95
2023-02-11T11:56:22.706Z,8.23
2023-02-11T11:58:50.005Z,11.38
2023-02-11T12:01:17.259Z,5.88
2023-02-11T12:03:45.077Z,3.85
2023-02-11T12:06:12.321Z,5.10
2023-02-11T12:08:39.684Z,4.72
2023-02-11T12:11:06.937Z,6.55
2023-02-11T12:13:34.211Z,9.55
2023-02-11T12:16:01.522Z,5.68
2023-02-11T12:18:29.709Z,13.70
2023-02-11T12:20:56.987Z,5.13
2023-02-11T12:23:24.203Z,9.30
2023-02-11T12:25:51.584Z,8.10
2023-02-11T12:28:18.978Z,6.68
2023-02-11T12:30:46.365Z,3.55
2023-02-11T12:33:13.697Z,11.30
2023-02-11T12:35:41.061Z,5.15
2023-02-11T12:38:08.494Z,7.03
2023-02-11T12:40:35.738Z,5.03
2023-02-11T12:43:18.299Z,8.07
2023-02-11T12:45:45.600Z,9.63
2023-02-11T12:48:13.006Z,6.57
2023-02-11T12:50:40.319Z,8.57
2023-02-11T12:53:07.538Z,8.57
2023-02-11T12:55:37.226Z,6.95
2023-02-11T12:58:04.522Z,6.43
2023-02-11T13:00:31.811Z,6.70
2023-02-11T13:02:59.051Z,8.52
2023-02-11T13:05:26.388Z,4.90
2023-02-11T13:07:53.588Z,2.55
2023-02-11T13:10:20.845Z,7.20
2023-02-11T13:13:06.963Z,3.92
2023-02-11T13:15:34.268Z,9.30
2023-02-11T13:18:01.612Z,6.32
2023-02-11T13:20:28.889Z,7.00
2023-02-11T13:22:57.289Z,9.05
2023-02-11T13:25:24.552Z,6.30
2023-02-11T13:27:51.812Z,5.28
2023-02-11T13:30:21.620Z,9.65
2023-02-11T13:32:48.877Z,8.00
2023-02-11T13:35:16.105Z,9.80
2023-02-11T13:37:43.439Z,8.88
2023-02-11T13:40:10.737Z,9.50
2023-02-11T13:42:38.074Z,6.82
2023-02-11T13:45:05.288Z,7.28
2023-02-11T13:47:32.543Z,5.35
2023-02-11T13:49:59.879Z,6.88
2023-02-11T13:52:27.231Z,6.20
2023-02-11T13:54:54.434Z,5.82
2023-02-11T13:57:21.762Z,7.82
2023-02-11T13:59:48.984Z,14.27
2023-02-11T14:02:35.110Z,9.55
2023-02-11T14:05:21.301Z,8.98
2023-02-11T14:08:07.310Z,6.53
2023-02-11T14:10:34.588Z,6.22
2023-02-11T14:13:01.785Z,7.75
2023-02-11T14:15:29.356Z,7.05
2023-02-11T14:17:56.622Z,9.90
2023-02-11T14:20:23.872Z,3.42
2023-02-11T14:22:51.057Z,9.57
2023-02-11T14:25:18.338Z,5.72
2023-02-11T14:27:45.513Z,6.93
2023-02-11T14:30:12.960Z,10.18
2023-02-11T14:32:40.984Z,8.05
2023-02-11T14:35:08.300Z,9.25
2023-02-11T14:37:35.546Z,12.15
2023-02-11T14:40:02.812Z,7.85
2023-02-11T14:42:30.991Z,8.85
2023-02-11T14:44:58.391Z,12.20
2023-02-11T14:47:25.667Z,10.93
2023-02-11T14:49:52.963Z,11.23
2023-02-11T14:52:20.221Z,10.52
2023-02-11T14:54:47.457Z,8.85
2023-02-11T14:57:14.739Z,6.38
2023-02-11T14:59:42.137Z,8.40
2023-02-11T15:02:09.695Z,7.63
2023-02-11T15:04:37.866Z,10.15
2023-02-11T15:07:05.101Z,10.25
2023-02-11T15:09:32.388Z,10.27
2023-02-11T15:11:59.619Z,12.95
2023-02-11T15:14:26.913Z,12.75
2023-02-11T15:16:54.202Z,8.23
2023-02-11T15:19:21.443Z,10.60
2023-02-11T15:21:48.775Z,7.53
2023-02-11T15:24:16.210Z,8.20
2023-02-11T15:26:43.381Z,6.68
2023-02-11T15:29:10.688Z,8.50
2023-02-11T15:31:37.986Z,15.13
2023-02-11T15:34:05.260Z,10.45
2023-02-11T15:36:33.240Z,9.52
2023-02-11T15:39:00.448Z,11.50
2023-02-11T15:41:27.696Z,9.32
2023-02-11T15:43:54.978Z,8.60
2023-02-11T15:46:22.335Z,7.82
2023-02-11T15:48:49.593Z,7.50
2023-02-11T15:51:16.905Z,8.60
2023-02-11T15:53:44.276Z,10.38
2023-02-11T15:56:11.521Z,14.10
2023-02-11T15:58:38.800Z,12.43
2023-02-11T16:01:06.828Z,7.45
2023-02-11T16:03:34.548Z,11.27
2023-02-11T16:06:08.151Z,12.10
2023-02-11T16:08:37.648Z,16.80
2023-02-11T16:11:08.925Z,11.32
2023-02-11T16:13:36.161Z,13.00
2023-02-11T16:16:04.650Z,13.13
2023-02-11T16:18:38.436Z,7.10
2023-02-11T16:21:06.388Z,8.30
2023-02-11T16:23:33.662Z,11.32
2023-02-11T16:26:00.960Z,9.68
2023-02-11T16:28:28.327Z,13.00
2023-02-11T16:30:55.884Z,9.27
2023-02-11T16:33:23.154Z,8.15
2023-02-11T16:35:50.462Z,9.60
2023-02-11T16:38:17.716Z,5.65
2023-02-11T16:40:49.063Z,11.45
2023-02-11T16:43:16.563Z,12.27
2023-02-11T16:45:43.821Z,6.13
2023-02-11T16:48:11.073Z,11.13
2023-02-11T16:50:38.297Z,19.65
2023-02-11T16:53:06.517Z,15.68
2023-02-11T16:55:34.936Z,15.70
2023-02-11T16:58:02.351Z,10.90
2023-02-11T17:00:30.106Z,38.90
2023-02-11T17:02:57.375Z,9.52
2023-02-11T17:05:25.942Z,12.57
2023-02-11T17:07:53.270Z,10.70
2023-02-11T17:10:20.499Z,7.90
2023-02-11T17:12:48.138Z,11.45
2023-02-11T17:15:15.536Z,21.38
2023-02-11T17:17:42.822Z,14.45
2023-02-11T17:20:09.995Z,15.63
2023-02-11T17:22:37.259Z,13.45
2023-02-11T17:25:04.502Z,11.52
2023-02-11T17:27:31.829Z,7.85
2023-02-11T17:29:59.051Z,8.43
2023-02-11T17:32:26.303Z,37.28
2023-02-11T17:34:53.646Z,6.97
2023-02-11T17:37:20.905Z,10.35
2023-02-11T17:39:48.057Z,6.22
2023-02-11T17:42:15.275Z,11.50
2023-02-11T17:44:42.512Z,9.77
2023-02-11T17:47:09.777Z,15.93
2023-02-11T17:49:36.939Z,14.20
2023-02-11T17:52:04.112Z,5.80
2023-02-11T17:54:31.362Z,11.68
2023-02-11T17:56:58.756Z,16.10
2023-02-11T17:59:26.579Z,9.98
2023-02-11T18:01:53.762Z,12.25
2023-02-11T18:04:21.157Z,9.02
2023-02-11T18:06:48.491Z,7.85
2023-02-11T18:09:15.740Z,9.57
2023-02-11T18:11:42.984Z,7.05
2023-02-11T18:14:10.408Z,6.82
2023-02-11T18:16:39.394Z,9.85
2023-02-11T18:19:07.552Z,12.77
2023-02-11T18:21:34.857Z,17.75
2023-02-11T18:24:06.385Z,20.13
2023-02-11T18:26:34.391Z,12.90
2023-02-11T18:29:01.642Z,16.65
2023-02-11T18:31:29.007Z,10.98
2023-02-11T18:33:56.259Z,15.18
2023-02-11T18:36:23.486Z,22.45
2023-02-11T18:38:52.653Z,8.35
2023-02-11T18:41:20.018Z,12.65
2023-02-11T18:43:47.300Z,17.08
2023-02-11T18:46:14.661Z,14.48
2023-02-11T18:48:41.870Z,11.90
2023-02-11T18:51:09.145Z,11.43
2023-02-11T18:53:36.469Z,11.65
2023-02-11T18:56:03.714Z,11.20
2023-02-11T18:58:30.941Z,9.27
2023-02-11T19:00:58.290Z,12.15
2023-02-11T19:03:25.615Z,13.85
2023-02-11T19:05:54.649Z,19.17
2023-02-11T19:08:21.964Z,12.07
2023-02-11T19:10:49.995Z,16.80
2023-02-11T19:13:17.240Z,21.08
2023-02-11T19:15:44.539Z,14.27
2023-02-11T19:18:11.742Z,15.50
2023-02-11T19:20:39.067Z,14.52
2023-02-11T19:23:06.308Z,13.32
2023-02-11T19:25:33.599Z,15.05
2023-02-11T19:28:00.879Z,14.52
2023-02-11T19:30:28.171Z,17.48
2023-02-11T19:32:57.190Z,18.88
2023-02-11T19:35:24.499Z,16.42
2023-02-11T19:37:51.683Z,10.00
2023-02-11T19:40:19.262Z,9.70
2023-02-11T19:42:46.486Z,13.10
2023-02-11T19:45:13.840Z,16.67
2023-02-11T19:47:41.086Z,15.48
2023-02-11T19:50:08.626Z,14.02
2023-02-11T19:52:35.838Z,18.40
2023-02-11T19:55:03.077Z,17.70
2023-02-11T19:57:30.268Z,21.17
2023-02-11T19:59:57.485Z,20.38
2023-02-11T20:02:24.833Z,18.05
2023-02-11T20:04:52.171Z,17.83
2023-02-11T20:07:19.401Z,15.63
2023-02-11T20:09:46.633Z,15.90
2023-02-11T20:12:13.879Z,17.08
2023-02-11T20:14:41.139Z,19.95
2023-02-11T20:17:08.307Z,23.58
2023-02-11T20:19:35.543Z,19.77
2023-02-11T20:22:02.766Z,18.00
2023-02-11T20:24:30.005Z,12.85
2023-02-11T20:26:57.226Z,9.55
2023-02-11T20:29:24.536Z,10.38
2023-02-11T20:31:51.889Z,12.10
2023-02-11T20:34:19.317Z,15.07
2023-02-11T20:36:52.217Z,12.88
2023-02-11T20:39:21.859Z,12.18
2023-02-11T20:41:49.229Z,10.52
2023-02-11T20:44:16.584Z,9.60
2023-02-11T20:46:44.014Z,22.88
2023-02-11T20:49:11.372Z,24.45
2023-02-11T20:51:38.849Z,18.13
2023-02-11T20:54:09.026Z,24.88
2023-02-11T20:56:36.656Z,19.33
2023-02-11T20:59:04.104Z,16.25
2023-02-11T21:01:31.461Z,16.40
2023-02-11T21:03:58.761Z,18.95
2023-02-11T21:06:26.055Z,13.27
2023-02-11T21:08:53.281Z,20.95
2023-02-11T21:11:20.696Z,22.13
2023-02-11T21:13:48.728Z,16.65
2023-02-11T21:16:16.027Z,15.48
2023-02-11T21:18:43.350Z,17.35
2023-02-11T21:21:10.680Z,17.67
2023-02-11T21:23:39.619Z,19.95
2023-02-11T21:26:06.981Z,19.10
2023-02-11T21:28:34.275Z,23.63
2023-02-11T21:31:01.664Z,26.15
2023-02-11T21:33:29.028Z,35.33
2023-02-11T21:35:56.522Z,39.85
2023-02-11T21:38:24.042Z,18.02
2023-02-11T21:40:51.222Z,17.63
2023-02-11T21:43:18.445Z,13.60
2023-02-11T21:45:45.677Z,10.18
2023-02-11T21:48:13.018Z,13.00
2023-02-11T21:50:40.313Z,8.90
2023-02-11T21:53:07.615Z,10.88
2023-02-11T21:55:34.943Z,11.15
2023-02-11T21:58:02.272Z,12.48
2023-02-11T22:00:29.533Z,11.93
2023-02-11T22:02:56.831Z,13.50
2023-02-11T22:05:24.119Z,14.18
2023-02-11T22:07:51.400Z,20.75
2023-02-11T22:10:18.631Z,29.33
2023-02-11T22:12:45.925Z,23.55
2023-02-11T22:15:13.119Z,14.93
2023-02-11T22:17:40.383Z,20.58
2023-02-11T22:20:07.549Z,28.08
2023-02-11T22:22:35.376Z,22.58
2023-02-11T22:25:03.352Z,21.10
2023-02-11T22:27:30.612Z,18.15
2023-02-11T22:29:57.892Z,18.63
2023-02-11T22:32:25.148Z,21.23
2023-02-11T22:34:53.518Z,18.00
2023-02-11T22:37:20.917Z,19.50
2023-02-11T22:39:48.112Z,28.30
2023-02-11T22:42:15.482Z,32.67
2023-02-11T22:44:42.765Z,24.42
2023-02-11T22:47:10.152Z,18.00
2023-02-11T22:49:37.546Z,14.05
2023-02-11T22:52:04.808Z,19.13
2023-02-11T22:54:32.007Z,16.40
2023-02-11T22:56:59.275Z,15.00
2023-02-11T22:59:26.457Z,15.15
2023-02-11T23:01:53.849Z,13.48
2023-02-11T23:04:21.186Z,14.68
2023-02-11T23:06:49.405Z,15.00
2023-02-11T23:09:16.621Z,19.15
2023-02-11T23:11:44.164Z,18.23
2023-02-11T23:14:12.392Z,15.63
2023-02-11T23:16:39.893Z,18.20
2023-02-11T23:19:07.086Z,16.35
2023-02-11T23:21:34.426Z,16.17
2023-02-11T23:24:01.645Z,16.27
2023-02-11T23:26:28.966Z,20.40
2023-02-11T23:28:56.235Z,16.33
2023-02-11T23:31:23.784Z,25.60
2023-02-11T23:33:51.024Z,19.98
2023-02-11T23:36:18.270Z,27.02
2023-02-11T23:38:45.461Z,21.13
2023-02-11T23:41:12.658Z,19.98
2023-02-11T23:43:39.851Z,23.63
2023-02-11T23:46:07.226Z,29.80
2023-02-11T23:48:36.090Z,21.65
2023-02-11T23:51:03.392Z,23.30
2023-02-11T23:53:30.567Z,22.35
2023-02-11T23:55:57.809Z,19.67
2023-02-11T23:58:24.984Z,21.20
